sensor_id;sensor_type;location;lat;lon;timestamp;P1;durP1;ratioP1;P2;durP2;ratioP2
4055;SDS011;2043;52.184;8.690;2023-07-30T00:00:05;9.50;;;5.40;;
4055;SDS011;2043;52.184;8.690;2023-07-30T00:02:32;9.60;;;5.73;;
4055;SDS011;2043;52.184;8.690;2023-07-30T00:04:59;10.73;;;6.37;;
4055;SDS011;2043;52.184;8.690;2023-07-30T00:07:26;9.97;;;6.40;;
4055;SDS011;2043;52.184;8.690;2023-07-30T00:09:52;11.40;;;7.03;;
4055;SDS011;2043;52.184;8.690;2023-07-30T00:12:19;12.87;;;7.00;;
4055;SDS011;2043;52.184;8.690;2023-07-30T00:14:46;7.90;;;6.50;;
4055;SDS011;2043;52.184;8.690;2023-07-30T00:17:13;8.27;;;6.20;;
4055;SDS011;2043;52.184;8.690;2023-07-30T00:19:40;11.93;;;6.97;;
4055;SDS011;2043;52.184;8.690;2023-07-30T00:22:06;9.07;;;6.60;;
4055;SDS011;2043;52.184;8.690;2023-07-30T00:24:33;12.40;;;6.90;;
4055;SDS011;2043;52.184;8.690;2023-07-30T00:27:00;10.43;;;7.07;;
4055;SDS011;2043;52.184;8.690;2023-07-30T00:29:27;13.27;;;7.33;;
4055;SDS011;2043;52.184;8.690;2023-07-30T00:31:53;11.63;;;7.10;;
4055;SDS011;2043;52.184;8.690;2023-07-30T00:34:20;9.57;;;6.70;;
4055;SDS011;2043;52.184;8.690;2023-07-30T00:36:47;11.00;;;7.30;;
4055;SDS011;2043;52.184;8.690;2023-07-30T00:39:14;13.30;;;7.70;;
4055;SDS011;2043;52.184;8.690;2023-07-30T00:41:40;12.80;;;8.10;;
4055;SDS011;2043;52.184;8.690;2023-07-30T00:44:07;11.63;;;8.80;;
4055;SDS011;2043;52.184;8.690;2023-07-30T00:46:34;15.63;;;8.67;;
4055;SDS011;2043;52.184;8.690;2023-07-30T00:49:01;14.90;;;8.67;;
4055;SDS011;2043;52.184;8.690;2023-07-30T00:51:29;10.07;;;7.83;;
4055;SDS011;2043;52.184;8.690;2023-07-30T00:53:57;13.60;;;7.80;;
4055;SDS011;2043;52.184;8.690;2023-07-30T00:56:24;14.90;;;8.47;;
4055;SDS011;2043;52.184;8.690;2023-07-30T00:58:52;17.07;;;8.00;;
4055;SDS011;2043;52.184;8.690;2023-07-30T01:01:19;10.83;;;6.60;;
4055;SDS011;2043;52.184;8.690;2023-07-30T01:03:45;14.33;;;7.20;;
4055;SDS011;2043;52.184;8.690;2023-07-30T01:06:12;17.50;;;7.40;;
4055;SDS011;2043;52.184;8.690;2023-07-30T01:08:39;11.40;;;6.60;;
4055;SDS011;2043;52.184;8.690;2023-07-30T01:11:06;9.23;;;6.30;;
4055;SDS011;2043;52.184;8.690;2023-07-30T01:13:34;11.97;;;6.70;;
4055;SDS011;2043;52.184;8.690;2023-07-30T01:16:02;10.70;;;6.50;;
4055;SDS011;2043;52.184;8.690;2023-07-30T01:18:30;10.97;;;6.43;;
4055;SDS011;2043;52.184;8.690;2023-07-30T01:20:57;16.73;;;6.80;;
4055;SDS011;2043;52.184;8.690;2023-07-30T01:23:25;19.50;;;6.80;;
4055;SDS011;2043;52.184;8.690;2023-07-30T01:25:55;11.03;;;6.30;;
4055;SDS011;2043;52.184;8.690;2023-07-30T01:28:30;13.40;;;6.90;;
4055;SDS011;2043;52.184;8.690;2023-07-30T01:31:04;13.73;;;6.87;;
4055;SDS011;2043;52.184;8.690;2023-07-30T01:33:32;9.27;;;5.80;;
4055;SDS011;2043;52.184;8.690;2023-07-30T01:35:59;10.70;;;5.90;;
4055;SDS011;2043;52.184;8.690;2023-07-30T01:38:28;14.77;;;6.30;;
4055;SDS011;2043;52.184;8.690;2023-07-30T01:40:56;8.33;;;5.90;;
4055;SDS011;2043;52.184;8.690;2023-07-30T01:43:23;9.90;;;6.23;;
4055;SDS011;2043;52.184;8.690;2023-07-30T01:45:49;12.20;;;5.60;;
4055;SDS011;2043;52.184;8.690;2023-07-30T01:48:16;12.37;;;6.20;;
4055;SDS011;2043;52.184;8.690;2023-07-30T01:50:43;9.33;;;5.87;;
4055;SDS011;2043;52.184;8.690;2023-07-30T01:53:13;10.50;;;5.47;;
4055;SDS011;2043;52.184;8.690;2023-07-30T01:55:40;11.33;;;6.00;;
4055;SDS011;2043;52.184;8.690;2023-07-30T01:58:09;8.20;;;5.90;;
4055;SDS011;2043;52.184;8.690;2023-07-30T02:00:36;11.90;;;6.30;;
4055;SDS011;2043;52.184;8.690;2023-07-30T02:03:03;15.67;;;5.67;;
4055;SDS011;2043;52.184;8.690;2023-07-30T02:05:30;12.90;;;5.90;;
4055;SDS011;2043;52.184;8.690;2023-07-30T02:07:57;11.23;;;6.50;;
4055;SDS011;2043;52.184;8.690;2023-07-30T02:10:24;14.03;;;6.67;;
4055;SDS011;2043;52.184;8.690;2023-07-30T02:12:52;18.03;;;6.97;;
4055;SDS011;2043;52.184;8.690;2023-07-30T02:15:18;15.30;;;6.77;;
4055;SDS011;2043;52.184;8.690;2023-07-30T02:17:45;16.13;;;6.87;;
4055;SDS011;2043;52.184;8.690;2023-07-30T02:20:12;16.33;;;7.00;;
4055;SDS011;2043;52.184;8.690;2023-07-30T02:22:39;22.03;;;7.50;;
4055;SDS011;2043;52.184;8.690;2023-07-30T02:25:06;18.03;;;7.27;;
4055;SDS011;2043;52.184;8.690;2023-07-30T02:27:33;13.00;;;8.20;;
4055;SDS011;2043;52.184;8.690;2023-07-30T02:29:59;17.47;;;7.73;;
4055;SDS011;2043;52.184;8.690;2023-07-30T02:32:26;15.77;;;8.00;;
4055;SDS011;2043;52.184;8.690;2023-07-30T02:34:55;12.37;;;7.77;;
4055;SDS011;2043;52.184;8.690;2023-07-30T02:37:21;14.27;;;7.77;;
4055;SDS011;2043;52.184;8.690;2023-07-30T02:39:48;13.50;;;7.40;;
4055;SDS011;2043;52.184;8.690;2023-07-30T02:42:15;16.53;;;7.20;;
4055;SDS011;2043;52.184;8.690;2023-07-30T02:44:42;13.93;;;7.13;;
4055;SDS011;2043;52.184;8.690;2023-07-30T02:47:08;13.80;;;8.13;;
4055;SDS011;2043;52.184;8.690;2023-07-30T02:49:35;13.23;;;7.80;;
4055;SDS011;2043;52.184;8.690;2023-07-30T02:52:02;15.73;;;8.30;;
4055;SDS011;2043;52.184;8.690;2023-07-30T02:54:29;22.80;;;7.40;;
4055;SDS011;2043;52.184;8.690;2023-07-30T02:56:56;13.40;;;7.70;;
4055;SDS011;2043;52.184;8.690;2023-07-30T02:59:23;11.27;;;6.90;;
4055;SDS011;2043;52.184;8.690;2023-07-30T03:01:49;19.80;;;8.90;;
4055;SDS011;2043;52.184;8.690;2023-07-30T03:04:16;10.93;;;7.30;;
4055;SDS011;2043;52.184;8.690;2023-07-30T03:06:43;15.93;;;7.73;;
4055;SDS011;2043;52.184;8.690;2023-07-30T03:09:10;26.73;;;7.37;;
4055;SDS011;2043;52.184;8.690;2023-07-30T03:11:36;15.00;;;7.60;;
4055;SDS011;2043;52.184;8.690;2023-07-30T03:14:04;14.60;;;7.93;;
4055;SDS011;2043;52.184;8.690;2023-07-30T03:16:30;16.00;;;8.80;;
4055;SDS011;2043;52.184;8.690;2023-07-30T03:18:57;14.53;;;7.70;;
4055;SDS011;2043;52.184;8.690;2023-07-30T03:21:24;18.27;;;7.67;;
4055;SDS011;2043;52.184;8.690;2023-07-30T03:23:51;13.57;;;7.80;;
4055;SDS011;2043;52.184;8.690;2023-07-30T03:26:18;20.60;;;7.93;;
4055;SDS011;2043;52.184;8.690;2023-07-30T03:28:44;18.27;;;8.20;;
4055;SDS011;2043;52.184;8.690;2023-07-30T03:31:11;14.03;;;7.90;;
4055;SDS011;2043;52.184;8.690;2023-07-30T03:33:38;22.80;;;8.27;;
4055;SDS011;2043;52.184;8.690;2023-07-30T03:36:05;12.57;;;8.00;;
4055;SDS011;2043;52.184;8.690;2023-07-30T03:38:32;14.20;;;8.20;;
4055;SDS011;2043;52.184;8.690;2023-07-30T03:40:59;16.13;;;8.50;;
4055;SDS011;2043;52.184;8.690;2023-07-30T03:43:25;31.40;;;9.67;;
4055;SDS011;2043;52.184;8.690;2023-07-30T03:45:52;20.90;;;10.27;;
4055;SDS011;2043;52.184;8.690;2023-07-30T03:48:19;18.60;;;10.67;;
4055;SDS011;2043;52.184;8.690;2023-07-30T03:50:46;21.83;;;10.93;;
4055;SDS011;2043;52.184;8.690;2023-07-30T03:53:15;22.37;;;10.80;;
4055;SDS011;2043;52.184;8.690;2023-07-30T03:55:42;22.57;;;12.17;;
4055;SDS011;2043;52.184;8.690;2023-07-30T03:58:08;21.53;;;11.27;;
4055;SDS011;2043;52.184;8.690;2023-07-30T04:00:35;19.40;;;10.20;;
4055;SDS011;2043;52.184;8.690;2023-07-30T04:03:02;19.23;;;10.30;;
4055;SDS011;2043;52.184;8.690;2023-07-30T04:05:29;17.43;;;9.83;;
4055;SDS011;2043;52.184;8.690;2023-07-30T04:07:56;19.87;;;9.87;;
4055;SDS011;2043;52.184;8.690;2023-07-30T04:10:23;23.07;;;9.37;;
4055;SDS011;2043;52.184;8.690;2023-07-30T04:12:50;18.10;;;8.80;;
4055;SDS011;2043;52.184;8.690;2023-07-30T04:15:17;14.97;;;8.00;;
4055;SDS011;2043;52.184;8.690;2023-07-30T04:17:44;20.93;;;8.03;;
4055;SDS011;2043;52.184;8.690;2023-07-30T04:20:10;16.17;;;6.97;;
4055;SDS011;2043;52.184;8.690;2023-07-30T04:22:37;12.20;;;6.23;;
4055;SDS011;2043;52.184;8.690;2023-07-30T04:25:04;13.33;;;6.70;;
4055;SDS011;2043;52.184;8.690;2023-07-30T04:27:31;15.93;;;6.23;;
4055;SDS011;2043;52.184;8.690;2023-07-30T04:30:00;11.53;;;5.80;;
4055;SDS011;2043;52.184;8.690;2023-07-30T04:32:26;14.47;;;6.17;;
4055;SDS011;2043;52.184;8.690;2023-07-30T04:34:53;18.70;;;5.20;;
4055;SDS011;2043;52.184;8.690;2023-07-30T04:37:20;12.43;;;5.33;;
4055;SDS011;2043;52.184;8.690;2023-07-30T04:39:47;12.03;;;5.27;;
4055;SDS011;2043;52.184;8.690;2023-07-30T04:42:14;10.80;;;4.50;;
4055;SDS011;2043;52.184;8.690;2023-07-30T04:44:41;12.17;;;4.73;;
4055;SDS011;2043;52.184;8.690;2023-07-30T04:47:08;12.13;;;4.70;;
4055;SDS011;2043;52.184;8.690;2023-07-30T04:49:35;10.23;;;4.63;;
4055;SDS011;2043;52.184;8.690;2023-07-30T04:52:03;15.60;;;4.60;;
4055;SDS011;2043;52.184;8.690;2023-07-30T04:57:22;12.20;;;4.50;;
4055;SDS011;2043;52.184;8.690;2023-07-30T04:59:48;14.93;;;4.27;;
4055;SDS011;2043;52.184;8.690;2023-07-30T05:02:15;13.43;;;4.67;;
4055;SDS011;2043;52.184;8.690;2023-07-30T05:04:42;13.40;;;5.10;;
4055;SDS011;2043;52.184;8.690;2023-07-30T05:07:09;13.43;;;4.47;;
4055;SDS011;2043;52.184;8.690;2023-07-30T05:09:36;17.83;;;4.40;;
4055;SDS011;2043;52.184;8.690;2023-07-30T05:12:03;12.03;;;4.20;;
4055;SDS011;2043;52.184;8.690;2023-07-30T05:14:30;13.57;;;4.70;;
4055;SDS011;2043;52.184;8.690;2023-07-30T05:16:56;11.87;;;4.97;;
4055;SDS011;2043;52.184;8.690;2023-07-30T05:19:23;13.53;;;4.53;;
4055;SDS011;2043;52.184;8.690;2023-07-30T05:21:50;13.33;;;4.10;;
4055;SDS011;2043;52.184;8.690;2023-07-30T05:24:17;23.23;;;4.03;;
4055;SDS011;2043;52.184;8.690;2023-07-30T05:26:44;12.03;;;4.43;;
4055;SDS011;2043;52.184;8.690;2023-07-30T05:29:10;13.70;;;4.20;;
4055;SDS011;2043;52.184;8.690;2023-07-30T05:31:37;15.37;;;4.00;;
4055;SDS011;2043;52.184;8.690;2023-07-30T05:34:04;12.20;;;4.57;;
4055;SDS011;2043;52.184;8.690;2023-07-30T05:36:31;9.03;;;4.23;;
4055;SDS011;2043;52.184;8.690;2023-07-30T05:38:58;11.90;;;3.70;;
4055;SDS011;2043;52.184;8.690;2023-07-30T05:41:25;17.67;;;4.17;;
4055;SDS011;2043;52.184;8.690;2023-07-30T05:43:51;11.47;;;3.90;;
4055;SDS011;2043;52.184;8.690;2023-07-30T05:46:18;10.80;;;3.90;;
4055;SDS011;2043;52.184;8.690;2023-07-30T05:48:45;21.77;;;4.33;;
4055;SDS011;2043;52.184;8.690;2023-07-30T05:51:12;13.63;;;4.20;;
4055;SDS011;2043;52.184;8.690;2023-07-30T05:53:39;10.50;;;4.37;;
4055;SDS011;2043;52.184;8.690;2023-07-30T05:56:05;9.83;;;3.80;;
4055;SDS011;2043;52.184;8.690;2023-07-30T05:58:32;11.60;;;3.90;;
4055;SDS011;2043;52.184;8.690;2023-07-30T06:00:59;12.20;;;4.47;;
4055;SDS011;2043;52.184;8.690;2023-07-30T06:03:26;8.23;;;3.80;;
4055;SDS011;2043;52.184;8.690;2023-07-30T06:05:53;10.07;;;4.10;;
4055;SDS011;2043;52.184;8.690;2023-07-30T06:08:20;13.20;;;3.90;;
4055;SDS011;2043;52.184;8.690;2023-07-30T06:10:46;13.40;;;4.40;;
4055;SDS011;2043;52.184;8.690;2023-07-30T06:13:13;13.30;;;4.03;;
4055;SDS011;2043;52.184;8.690;2023-07-30T06:15:40;15.83;;;3.73;;
4055;SDS011;2043;52.184;8.690;2023-07-30T06:18:07;13.00;;;3.93;;
4055;SDS011;2043;52.184;8.690;2023-07-30T06:20:34;24.63;;;4.70;;
4055;SDS011;2043;52.184;8.690;2023-07-30T06:23:01;11.30;;;3.90;;
4055;SDS011;2043;52.184;8.690;2023-07-30T06:25:27;11.13;;;4.23;;
4055;SDS011;2043;52.184;8.690;2023-07-30T06:27:54;27.53;;;4.27;;
4055;SDS011;2043;52.184;8.690;2023-07-30T06:30:23;16.97;;;4.33;;
4055;SDS011;2043;52.184;8.690;2023-07-30T06:32:50;10.87;;;4.80;;
4055;SDS011;2043;52.184;8.690;2023-07-30T06:35:17;12.03;;;4.83;;
4055;SDS011;2043;52.184;8.690;2023-07-30T06:37:44;18.57;;;5.47;;
4055;SDS011;2043;52.184;8.690;2023-07-30T06:40:11;20.90;;;6.03;;
4055;SDS011;2043;52.184;8.690;2023-07-30T06:42:38;22.00;;;6.07;;
4055;SDS011;2043;52.184;8.690;2023-07-30T06:45:05;16.93;;;6.80;;
4055;SDS011;2043;52.184;8.690;2023-07-30T06:47:32;17.63;;;7.97;;
4055;SDS011;2043;52.184;8.690;2023-07-30T06:50:02;14.53;;;7.97;;
4055;SDS011;2043;52.184;8.690;2023-07-30T06:52:29;23.37;;;9.70;;
4055;SDS011;2043;52.184;8.690;2023-07-30T06:54:56;18.83;;;9.43;;
4055;SDS011;2043;52.184;8.690;2023-07-30T06:57:22;22.03;;;9.73;;
4055;SDS011;2043;52.184;8.690;2023-07-30T06:59:49;24.07;;;9.80;;
4055;SDS011;2043;52.184;8.690;2023-07-30T07:02:16;26.03;;;9.83;;
4055;SDS011;2043;52.184;8.690;2023-07-30T07:04:43;27.80;;;10.30;;
4055;SDS011;2043;52.184;8.690;2023-07-30T07:07:10;24.37;;;10.33;;
4055;SDS011;2043;52.184;8.690;2023-07-30T07:09:37;27.33;;;11.13;;
4055;SDS011;2043;52.184;8.690;2023-07-30T07:12:03;24.93;;;10.50;;
4055;SDS011;2043;52.184;8.690;2023-07-30T07:14:31;21.63;;;10.10;;
4055;SDS011;2043;52.184;8.690;2023-07-30T07:16:57;25.67;;;11.07;;
4055;SDS011;2043;52.184;8.690;2023-07-30T07:19:24;23.90;;;10.47;;
4055;SDS011;2043;52.184;8.690;2023-07-30T07:21:51;21.67;;;10.47;;
4055;SDS011;2043;52.184;8.690;2023-07-30T07:24:18;23.20;;;9.83;;
4055;SDS011;2043;52.184;8.690;2023-07-30T07:26:47;18.97;;;9.50;;
4055;SDS011;2043;52.184;8.690;2023-07-30T07:29:14;21.60;;;10.10;;
4055;SDS011;2043;52.184;8.690;2023-07-30T07:31:41;27.90;;;9.83;;
4055;SDS011;2043;52.184;8.690;2023-07-30T07:34:08;26.07;;;10.73;;
4055;SDS011;2043;52.184;8.690;2023-07-30T07:36:38;19.10;;;9.53;;
4055;SDS011;2043;52.184;8.690;2023-07-30T07:39:05;20.43;;;10.47;;
4055;SDS011;2043;52.184;8.690;2023-07-30T07:41:32;23.10;;;11.43;;
4055;SDS011;2043;52.184;8.690;2023-07-30T07:43:59;21.00;;;10.90;;
4055;SDS011;2043;52.184;8.690;2023-07-30T07:46:26;21.70;;;11.73;;
4055;SDS011;2043;52.184;8.690;2023-07-30T07:48:53;20.20;;;12.13;;
4055;SDS011;2043;52.184;8.690;2023-07-30T07:51:20;23.00;;;11.77;;
4055;SDS011;2043;52.184;8.690;2023-07-30T07:53:47;20.53;;;12.30;;
4055;SDS011;2043;52.184;8.690;2023-07-30T07:56:14;19.60;;;12.30;;
4055;SDS011;2043;52.184;8.690;2023-07-30T07:58:41;24.03;;;13.57;;
4055;SDS011;2043;52.184;8.690;2023-07-30T08:01:09;27.53;;;14.60;;
4055;SDS011;2043;52.184;8.690;2023-07-30T08:03:36;27.90;;;14.13;;
4055;SDS011;2043;52.184;8.690;2023-07-30T08:06:03;20.30;;;14.03;;
4055;SDS011;2043;52.184;8.690;2023-07-30T08:08:29;23.77;;;14.57;;
4055;SDS011;2043;52.184;8.690;2023-07-30T08:10:56;27.13;;;15.30;;
4055;SDS011;2043;52.184;8.690;2023-07-30T08:13:23;23.20;;;13.63;;
4055;SDS011;2043;52.184;8.690;2023-07-30T08:15:50;21.70;;;13.60;;
4055;SDS011;2043;52.184;8.690;2023-07-30T08:18:17;20.43;;;12.93;;
4055;SDS011;2043;52.184;8.690;2023-07-30T08:20:43;27.07;;;15.27;;
4055;SDS011;2043;52.184;8.690;2023-07-30T08:23:10;28.73;;;13.70;;
4055;SDS011;2043;52.184;8.690;2023-07-30T08:25:37;20.17;;;13.17;;
4055;SDS011;2043;52.184;8.690;2023-07-30T08:28:04;26.53;;;13.33;;
4055;SDS011;2043;52.184;8.690;2023-07-30T08:30:31;24.13;;;14.23;;
4055;SDS011;2043;52.184;8.690;2023-07-30T08:32:57;35.73;;;15.20;;
4055;SDS011;2043;52.184;8.690;2023-07-30T08:35:24;30.00;;;13.60;;
4055;SDS011;2043;52.184;8.690;2023-07-30T08:37:53;23.23;;;13.60;;
4055;SDS011;2043;52.184;8.690;2023-07-30T08:40:23;26.00;;;14.03;;
4055;SDS011;2043;52.184;8.690;2023-07-30T08:42:51;28.20;;;14.40;;
4055;SDS011;2043;52.184;8.690;2023-07-30T08:45:19;26.23;;;14.60;;
4055;SDS011;2043;52.184;8.690;2023-07-30T08:47:46;22.83;;;12.77;;
4055;SDS011;2043;52.184;8.690;2023-07-30T08:50:14;21.20;;;12.83;;
4055;SDS011;2043;52.184;8.690;2023-07-30T08:52:41;24.83;;;12.60;;
4055;SDS011;2043;52.184;8.690;2023-07-30T08:55:08;24.43;;;12.33;;
4055;SDS011;2043;52.184;8.690;2023-07-30T08:57:37;20.77;;;12.00;;
4055;SDS011;2043;52.184;8.690;2023-07-30T09:00:08;27.27;;;12.00;;
4055;SDS011;2043;52.184;8.690;2023-07-30T09:02:39;21.90;;;12.30;;
4055;SDS011;2043;52.184;8.690;2023-07-30T09:05:08;23.87;;;14.37;;
4055;SDS011;2043;52.184;8.690;2023-07-30T09:07:35;27.70;;;13.73;;
4055;SDS011;2043;52.184;8.690;2023-07-30T09:10:02;24.67;;;14.20;;
4055;SDS011;2043;52.184;8.690;2023-07-30T09:12:30;25.70;;;14.67;;
4055;SDS011;2043;52.184;8.690;2023-07-30T09:15:01;26.83;;;15.20;;
4055;SDS011;2043;52.184;8.690;2023-07-30T09:17:31;23.23;;;14.10;;
4055;SDS011;2043;52.184;8.690;2023-07-30T09:20:04;28.90;;;15.80;;
4055;SDS011;2043;52.184;8.690;2023-07-30T09:22:32;26.23;;;16.93;;
4055;SDS011;2043;52.184;8.690;2023-07-30T09:25:03;29.13;;;15.43;;
4055;SDS011;2043;52.184;8.690;2023-07-30T09:27:31;27.10;;;15.53;;
4055;SDS011;2043;52.184;8.690;2023-07-30T09:29:59;30.93;;;16.43;;
4055;SDS011;2043;52.184;8.690;2023-07-30T09:32:27;31.83;;;15.97;;
4055;SDS011;2043;52.184;8.690;2023-07-30T09:34:56;26.73;;;16.40;;
4055;SDS011;2043;52.184;8.690;2023-07-30T09:37:33;23.87;;;14.43;;
4055;SDS011;2043;52.184;8.690;2023-07-30T09:40:04;26.00;;;14.87;;
4055;SDS011;2043;52.184;8.690;2023-07-30T09:42:35;34.23;;;15.83;;
4055;SDS011;2043;52.184;8.690;2023-07-30T09:45:06;28.87;;;14.93;;
4055;SDS011;2043;52.184;8.690;2023-07-30T09:47:36;29.60;;;15.33;;
4055;SDS011;2043;52.184;8.690;2023-07-30T09:50:07;26.60;;;14.50;;
4055;SDS011;2043;52.184;8.690;2023-07-30T09:52:34;35.23;;;14.60;;
4055;SDS011;2043;52.184;8.690;2023-07-30T09:55:02;30.47;;;14.30;;
4055;SDS011;2043;52.184;8.690;2023-07-30T09:57:31;36.03;;;14.07;;
4055;SDS011;2043;52.184;8.690;2023-07-30T09:59:58;25.97;;;12.73;;
4055;SDS011;2043;52.184;8.690;2023-07-30T10:02:28;35.03;;;13.60;;
4055;SDS011;2043;52.184;8.690;2023-07-30T10:04:58;34.83;;;12.73;;
4055;SDS011;2043;52.184;8.690;2023-07-30T10:07:26;27.00;;;12.10;;
4055;SDS011;2043;52.184;8.690;2023-07-30T10:09:55;26.10;;;12.40;;
4055;SDS011;2043;52.184;8.690;2023-07-30T10:12:29;24.10;;;12.80;;
4055;SDS011;2043;52.184;8.690;2023-07-30T10:15:00;30.47;;;13.17;;
4055;SDS011;2043;52.184;8.690;2023-07-30T10:17:27;25.47;;;12.10;;
4055;SDS011;2043;52.184;8.690;2023-07-30T10:19:57;22.43;;;12.00;;
4055;SDS011;2043;52.184;8.690;2023-07-30T10:22:45;23.80;;;12.20;;
4055;SDS011;2043;52.184;8.690;2023-07-30T10:25:12;23.70;;;11.90;;
4055;SDS011;2043;52.184;8.690;2023-07-30T10:27:40;26.10;;;12.20;;
4055;SDS011;2043;52.184;8.690;2023-07-30T10:30:16;27.30;;;10.73;;
4055;SDS011;2043;52.184;8.690;2023-07-30T10:38:28;19.87;;;10.77;;
4055;SDS011;2043;52.184;8.690;2023-07-30T10:40:59;21.30;;;10.40;;
4055;SDS011;2043;52.184;8.690;2023-07-30T10:43:30;24.70;;;11.00;;
4055;SDS011;2043;52.184;8.690;2023-07-30T10:46:00;21.70;;;9.90;;
4055;SDS011;2043;52.184;8.690;2023-07-30T10:48:31;20.33;;;10.10;;
4055;SDS011;2043;52.184;8.690;2023-07-30T10:51:00;19.30;;;10.80;;
4055;SDS011;2043;52.184;8.690;2023-07-30T10:53:28;22.93;;;10.17;;
4055;SDS011;2043;52.184;8.690;2023-07-30T10:55:57;23.23;;;11.57;;
4055;SDS011;2043;52.184;8.690;2023-07-30T10:58:28;17.67;;;11.07;;
4055;SDS011;2043;52.184;8.690;2023-07-30T11:00:57;22.70;;;11.40;;
4055;SDS011;2043;52.184;8.690;2023-07-30T11:03:25;21.40;;;12.23;;
4055;SDS011;2043;52.184;8.690;2023-07-30T11:05:55;26.13;;;12.13;;
4055;SDS011;2043;52.184;8.690;2023-07-30T11:08:38;24.70;;;13.60;;
4055;SDS011;2043;52.184;8.690;2023-07-30T11:11:07;32.83;;;15.60;;
4055;SDS011;2043;52.184;8.690;2023-07-30T11:13:37;21.33;;;13.63;;
4055;SDS011;2043;52.184;8.690;2023-07-30T11:16:08;17.43;;;11.73;;
4055;SDS011;2043;52.184;8.690;2023-07-30T11:18:36;25.40;;;12.90;;
4055;SDS011;2043;52.184;8.690;2023-07-30T11:21:08;22.10;;;11.47;;
4055;SDS011;2043;52.184;8.690;2023-07-30T11:23:40;18.97;;;11.90;;
4055;SDS011;2043;52.184;8.690;2023-07-30T11:26:14;21.60;;;11.17;;
4055;SDS011;2043;52.184;8.690;2023-07-30T11:28:43;24.00;;;10.67;;
4055;SDS011;2043;52.184;8.690;2023-07-30T11:31:17;17.30;;;10.70;;
4055;SDS011;2043;52.184;8.690;2023-07-30T11:33:48;17.47;;;11.50;;
4055;SDS011;2043;52.184;8.690;2023-07-30T11:36:21;22.00;;;10.53;;
4055;SDS011;2043;52.184;8.690;2023-07-30T11:38:50;21.37;;;9.77;;
4055;SDS011;2043;52.184;8.690;2023-07-30T11:41:20;14.70;;;9.70;;
4055;SDS011;2043;52.184;8.690;2023-07-30T11:43:50;24.07;;;9.50;;
4055;SDS011;2043;52.184;8.690;2023-07-30T11:46:18;19.30;;;9.20;;
4055;SDS011;2043;52.184;8.690;2023-07-30T11:48:49;20.87;;;9.40;;
4055;SDS011;2043;52.184;8.690;2023-07-30T11:51:21;18.93;;;7.87;;
4055;SDS011;2043;52.184;8.690;2023-07-30T11:53:58;21.03;;;7.93;;
4055;SDS011;2043;52.184;8.690;2023-07-30T11:56:30;13.07;;;6.93;;
4055;SDS011;2043;52.184;8.690;2023-07-30T11:58:59;16.97;;;7.10;;
4055;SDS011;2043;52.184;8.690;2023-07-30T12:01:28;16.60;;;7.23;;
4055;SDS011;2043;52.184;8.690;2023-07-30T12:03:57;13.60;;;6.90;;
4055;SDS011;2043;52.184;8.690;2023-07-30T12:06:58;10.50;;;6.30;;
4055;SDS011;2043;52.184;8.690;2023-07-30T12:09:20;10.70;;;6.23;;
4055;SDS011;2043;52.184;8.690;2023-07-30T12:11:53;16.70;;;7.00;;
4055;SDS011;2043;52.184;8.690;2023-07-30T12:14:42;13.90;;;6.47;;
4055;SDS011;2043;52.184;8.690;2023-07-30T12:17:09;16.53;;;6.27;;
4055;SDS011;2043;52.184;8.690;2023-07-30T12:19:36;17.20;;;6.20;;
4055;SDS011;2043;52.184;8.690;2023-07-30T12:22:03;9.10;;;5.37;;
4055;SDS011;2043;52.184;8.690;2023-07-30T12:24:30;11.17;;;5.80;;
4055;SDS011;2043;52.184;8.690;2023-07-30T12:26:57;11.83;;;5.30;;
4055;SDS011;2043;52.184;8.690;2023-07-30T12:29:24;13.63;;;5.10;;
4055;SDS011;2043;52.184;8.690;2023-07-30T12:31:52;10.83;;;5.10;;
4055;SDS011;2043;52.184;8.690;2023-07-30T12:34:23;9.10;;;3.80;;
4055;SDS011;2043;52.184;8.690;2023-07-30T12:36:50;8.00;;;4.10;;
4055;SDS011;2043;52.184;8.690;2023-07-30T12:39:17;6.43;;;3.33;;
4055;SDS011;2043;52.184;8.690;2023-07-30T12:41:44;11.57;;;3.73;;
4055;SDS011;2043;52.184;8.690;2023-07-30T12:44:11;14.47;;;4.33;;
4055;SDS011;2043;52.184;8.690;2023-07-30T12:46:37;10.30;;;3.93;;
4055;SDS011;2043;52.184;8.690;2023-07-30T12:49:04;15.37;;;4.00;;
4055;SDS011;2043;52.184;8.690;2023-07-30T12:51:31;9.33;;;4.27;;
4055;SDS011;2043;52.184;8.690;2023-07-30T12:53:59;11.73;;;4.00;;
4055;SDS011;2043;52.184;8.690;2023-07-30T12:56:26;12.00;;;2.97;;
4055;SDS011;2043;52.184;8.690;2023-07-30T12:58:53;5.63;;;2.40;;
4055;SDS011;2043;52.184;8.690;2023-07-30T13:01:20;9.83;;;2.40;;
4055;SDS011;2043;52.184;8.690;2023-07-30T13:03:47;7.47;;;2.90;;
4055;SDS011;2043;52.184;8.690;2023-07-30T13:06:16;8.90;;;2.93;;
4055;SDS011;2043;52.184;8.690;2023-07-30T13:08:43;11.83;;;3.00;;
4055;SDS011;2043;52.184;8.690;2023-07-30T13:11:10;7.87;;;2.87;;
4055;SDS011;2043;52.184;8.690;2023-07-30T13:13:36;8.93;;;2.90;;
4055;SDS011;2043;52.184;8.690;2023-07-30T13:16:03;9.03;;;2.47;;
4055;SDS011;2043;52.184;8.690;2023-07-30T13:18:30;10.47;;;3.43;;
4055;SDS011;2043;52.184;8.690;2023-07-30T13:20:57;12.77;;;3.10;;
4055;SDS011;2043;52.184;8.690;2023-07-30T13:23:24;10.23;;;3.53;;
4055;SDS011;2043;52.184;8.690;2023-07-30T13:25:55;10.77;;;3.23;;
4055;SDS011;2043;52.184;8.690;2023-07-30T13:28:22;9.67;;;3.30;;
4055;SDS011;2043;52.184;8.690;2023-07-30T13:30:49;7.20;;;2.93;;
4055;SDS011;2043;52.184;8.690;2023-07-30T13:33:17;9.10;;;3.27;;
4055;SDS011;2043;52.184;8.690;2023-07-30T13:35:44;11.60;;;3.43;;
4055;SDS011;2043;52.184;8.690;2023-07-30T13:38:11;7.97;;;3.00;;
4055;SDS011;2043;52.184;8.690;2023-07-30T13:40:37;7.27;;;2.80;;
4055;SDS011;2043;52.184;8.690;2023-07-30T13:43:04;9.47;;;3.30;;
4055;SDS011;2043;52.184;8.690;2023-07-30T13:45:31;13.30;;;3.37;;
4055;SDS011;2043;52.184;8.690;2023-07-30T13:47:58;14.67;;;3.27;;
4055;SDS011;2043;52.184;8.690;2023-07-30T13:50:25;9.77;;;3.30;;
4055;SDS011;2043;52.184;8.690;2023-07-30T13:52:51;8.03;;;3.37;;
4055;SDS011;2043;52.184;8.690;2023-07-30T13:55:18;10.83;;;3.70;;
4055;SDS011;2043;52.184;8.690;2023-07-30T13:57:46;10.37;;;3.17;;
4055;SDS011;2043;52.184;8.690;2023-07-30T14:00:13;6.80;;;3.03;;
4055;SDS011;2043;52.184;8.690;2023-07-30T14:02:40;10.53;;;3.40;;
4055;SDS011;2043;52.184;8.690;2023-07-30T14:05:07;7.07;;;3.07;;
4055;SDS011;2043;52.184;8.690;2023-07-30T14:07:34;9.13;;;2.50;;
4055;SDS011;2043;52.184;8.690;2023-07-30T14:10:01;9.40;;;2.67;;
4055;SDS011;2043;52.184;8.690;2023-07-30T14:12:28;6.80;;;2.50;;
4055;SDS011;2043;52.184;8.690;2023-07-30T14:14:55;6.40;;;2.10;;
4055;SDS011;2043;52.184;8.690;2023-07-30T14:17:22;11.30;;;2.90;;
4055;SDS011;2043;52.184;8.690;2023-07-30T14:19:49;8.80;;;2.67;;
4055;SDS011;2043;52.184;8.690;2023-07-30T14:22:15;9.10;;;2.40;;
4055;SDS011;2043;52.184;8.690;2023-07-30T14:24:42;5.40;;;2.20;;
4055;SDS011;2043;52.184;8.690;2023-07-30T14:27:11;6.30;;;1.97;;
4055;SDS011;2043;52.184;8.690;2023-07-30T14:29:37;8.60;;;2.33;;
4055;SDS011;2043;52.184;8.690;2023-07-30T14:32:04;7.47;;;1.90;;
4055;SDS011;2043;52.184;8.690;2023-07-30T14:34:32;5.37;;;1.80;;
4055;SDS011;2043;52.184;8.690;2023-07-30T14:36:59;4.53;;;1.67;;
4055;SDS011;2043;52.184;8.690;2023-07-30T14:39:25;5.70;;;2.13;;
4055;SDS011;2043;52.184;8.690;2023-07-30T14:41:52;5.30;;;1.80;;
4055;SDS011;2043;52.184;8.690;2023-07-30T14:44:19;4.33;;;1.67;;
4055;SDS011;2043;52.184;8.690;2023-07-30T14:46:46;11.80;;;2.07;;
4055;SDS011;2043;52.184;8.690;2023-07-30T14:49:13;6.60;;;2.30;;
4055;SDS011;2043;52.184;8.690;2023-07-30T14:51:40;7.43;;;2.13;;
4055;SDS011;2043;52.184;8.690;2023-07-30T14:54:07;6.43;;;2.00;;
4055;SDS011;2043;52.184;8.690;2023-07-30T14:56:34;6.17;;;2.10;;
4055;SDS011;2043;52.184;8.690;2023-07-30T14:59:01;5.40;;;1.90;;
4055;SDS011;2043;52.184;8.690;2023-07-30T15:01:28;5.40;;;2.00;;
4055;SDS011;2043;52.184;8.690;2023-07-30T15:03:56;7.97;;;2.20;;
4055;SDS011;2043;52.184;8.690;2023-07-30T15:06:24;7.67;;;2.50;;
4055;SDS011;2043;52.184;8.690;2023-07-30T15:08:52;9.57;;;2.47;;
4055;SDS011;2043;52.184;8.690;2023-07-30T15:11:19;7.60;;;2.40;;